createdAt,value
2022-10-21T00:00:50.193Z,31.00
2022-10-21T00:03:18.388Z,35.47
2022-10-21T00:05:46.733Z,28.42
2022-10-21T00:08:14.923Z,33.55
2022-10-21T00:10:42.947Z,27.70
2022-10-21T00:13:12.854Z,36.15
2022-10-21T00:15:40.816Z,31.63
2022-10-21T00:18:08.686Z,25.92
2022-10-21T00:20:39.540Z,33.45
2022-10-21T00:23:08.168Z,28.20
2022-10-21T00:25:36.020Z,28.70
2022-10-21T00:28:03.972Z,25.75
2022-10-21T00:30:33.155Z,22.92
2022-10-21T00:33:03.124Z,20.95
2022-10-21T00:35:34.531Z,27.30
2022-10-21T00:38:02.434Z,22.83
2022-10-21T00:40:30.393Z,18.17
2022-10-21T00:42:58.322Z,29.02
2022-10-21T00:45:27.509Z,34.67
2022-10-21T00:48:01.378Z,33.78
2022-10-21T00:50:36.307Z,25.33
2022-10-21T00:53:08.798Z,23.47
2022-10-21T00:55:40.959Z,35.63
2022-10-21T00:58:09.476Z,29.77
2022-10-21T01:00:37.751Z,25.10
2022-10-21T01:03:07.374Z,26.83
2022-10-21T01:05:39.001Z,28.92
2022-10-21T01:08:07.009Z,27.13
2022-10-21T01:10:35.092Z,28.15
2022-10-21T01:13:16.161Z,23.48
2022-10-21T01:15:51.247Z,27.75
2022-10-21T01:18:28.307Z,35.20
2022-10-21T01:21:05.823Z,29.20
2022-10-21T01:27:13.369Z,36.97
2022-10-21T01:30:14.573Z,34.83
2022-10-21T01:32:51.955Z,32.63
2022-10-21T01:35:23.431Z,32.07
2022-10-21T01:38:02.552Z,28.88
2022-10-21T01:40:38.314Z,31.15
2022-10-21T01:43:14.594Z,22.45
2022-10-21T01:45:49.947Z,22.45
2022-10-21T01:48:22.872Z,23.17
2022-10-21T01:50:54.661Z,20.77
2022-10-21T01:53:24.549Z,18.02
2022-10-21T01:55:53.906Z,22.85
2022-10-21T01:58:24.963Z,24.55
2022-10-21T02:00:54.958Z,28.05
2022-10-21T02:03:28.017Z,29.92
2022-10-21T02:05:56.240Z,41.40
2022-10-21T02:08:24.238Z,39.38
2022-10-21T02:10:55.164Z,52.50
2022-10-21T02:13:27.191Z,49.20
2022-10-21T02:15:59.179Z,42.05
2022-10-21T02:18:29.155Z,46.20
2022-10-21T02:21:03.312Z,44.22
2022-10-21T02:23:39.191Z,42.20
2022-10-21T02:26:07.375Z,44.40
2022-10-21T02:28:35.658Z,43.55
2022-10-21T02:31:14.782Z,44.10
2022-10-21T02:33:52.978Z,44.20
2022-10-21T02:38:58.202Z,58.30
2022-10-21T02:41:28.144Z,48.85
2022-10-21T02:43:59.469Z,44.85
2022-10-21T02:46:32.250Z,47.10
2022-10-21T02:49:01.524Z,43.55
2022-10-21T02:51:29.483Z,41.90
2022-10-21T02:53:58.233Z,41.42
2022-10-21T02:56:26.621Z,44.00
2022-10-21T02:58:54.633Z,43.58
2022-10-21T03:01:22.605Z,34.55
2022-10-21T03:03:50.519Z,31.70
2022-10-21T03:06:20.412Z,34.22
2022-10-21T03:08:48.411Z,31.63
2022-10-21T03:11:16.436Z,35.88
2022-10-21T03:13:44.327Z,35.78
2022-10-21T03:16:12.288Z,33.55
2022-10-21T03:18:40.285Z,32.28
2022-10-21T03:21:08.244Z,32.20
2022-10-21T03:23:37.433Z,29.52
2022-10-21T03:26:05.511Z,34.30
2022-10-21T03:28:33.427Z,32.60
2022-10-21T03:31:01.354Z,35.67
2022-10-21T03:33:29.267Z,32.70
2022-10-21T03:35:57.115Z,29.02
2022-10-21T03:38:24.994Z,26.33
2022-10-21T03:40:54.229Z,21.80
2022-10-21T03:43:22.118Z,29.58
2022-10-21T03:45:49.970Z,30.70
2022-10-21T03:48:17.875Z,19.98
2022-10-21T03:50:45.774Z,21.38
2022-10-21T03:53:24.259Z,24.70
2022-10-21T03:56:02.882Z,31.10
2022-10-21T03:58:30.753Z,25.95
2022-10-21T04:00:58.612Z,29.27
2022-10-21T04:03:26.491Z,28.58
2022-10-21T04:05:55.179Z,17.85
2022-10-21T04:08:23.291Z,18.92
2022-10-21T04:10:51.202Z,25.80
2022-10-21T04:13:20.506Z,29.20
2022-10-21T04:15:48.381Z,23.67
2022-10-21T04:18:16.304Z,28.83
2022-10-21T04:20:44.170Z,17.92
2022-10-21T04:23:12.051Z,23.77
2022-10-21T04:25:39.891Z,26.48
2022-10-21T04:28:07.766Z,18.02
2022-10-21T04:30:37.210Z,27.50
2022-10-21T04:33:05.202Z,23.50
2022-10-21T04:35:33.116Z,21.40
2022-10-21T04:38:01.037Z,31.73
2022-10-21T04:40:28.961Z,27.80
2022-10-21T04:42:56.846Z,19.83
2022-10-21T04:45:24.729Z,26.63
2022-10-21T04:47:53.919Z,27.13
2022-10-21T04:50:22.171Z,15.68
2022-10-21T04:52:50.097Z,19.60
2022-10-21T04:55:18.039Z,20.13
2022-10-21T04:57:46.004Z,23.63
2022-10-21T05:00:14.627Z,15.90
2022-10-21T05:02:42.650Z,24.35
2022-10-21T05:05:12.017Z,20.00
2022-10-21T05:07:40.336Z,19.33
2022-10-21T05:10:08.912Z,18.63
2022-10-21T05:12:36.752Z,20.40
2022-10-21T05:15:05.267Z,19.00
2022-10-21T05:17:33.139Z,16.00
2022-10-21T05:20:01.021Z,31.30
2022-10-21T05:22:30.339Z,25.20
2022-10-21T05:24:58.279Z,18.40
2022-10-21T05:27:26.176Z,25.67
2022-10-21T05:29:54.017Z,22.42
2022-10-21T05:32:21.950Z,21.00
2022-10-21T05:34:49.797Z,18.60
2022-10-21T05:37:17.764Z,31.75
2022-10-21T05:39:46.983Z,25.98
2022-10-21T05:42:14.947Z,20.27
2022-10-21T05:44:42.916Z,24.17
2022-10-21T05:47:11.121Z,29.25
2022-10-21T05:49:39.066Z,16.90
2022-10-21T05:52:07.035Z,19.92
2022-10-21T05:54:35.211Z,24.80
2022-10-21T05:57:04.516Z,26.02
2022-10-21T05:59:32.354Z,23.38
2022-10-21T06:02:00.281Z,18.15
2022-10-21T06:04:28.245Z,21.95
2022-10-21T06:09:28.929Z,25.00
2022-10-21T06:11:57.763Z,25.35
2022-10-21T06:14:27.758Z,26.75
2022-10-21T06:16:55.652Z,25.58
2022-10-21T06:19:23.567Z,23.52
2022-10-21T06:21:51.443Z,16.33
2022-10-21T06:24:19.357Z,24.73
2022-10-21T06:26:47.326Z,18.50
2022-10-21T06:29:16.338Z,22.02
2022-10-21T06:31:46.065Z,24.33
2022-10-21T06:34:14.100Z,22.23
2022-10-21T06:36:42.023Z,23.63
2022-10-21T06:39:09.964Z,28.92
2022-10-21T06:41:37.892Z,24.33
2022-10-21T06:44:05.974Z,24.27
2022-10-21T06:46:33.886Z,21.83
2022-10-21T06:49:03.058Z,25.75
2022-10-21T06:51:31.161Z,26.77
2022-10-21T06:54:00.595Z,28.20
2022-10-21T06:56:28.871Z,24.73
2022-10-21T06:58:58.816Z,25.50
2022-10-21T07:01:35.285Z,23.70
2022-10-21T07:04:11.174Z,21.15
2022-10-21T07:06:39.119Z,34.35
2022-10-21T07:09:08.850Z,19.20
2022-10-21T07:11:36.969Z,18.60
2022-10-21T07:14:05.064Z,23.17
2022-10-21T07:16:35.044Z,21.77
2022-10-21T07:19:03.258Z,24.73
2022-10-21T07:21:33.607Z,23.23
2022-10-21T07:24:01.924Z,31.10
2022-10-21T07:26:32.108Z,22.73
2022-10-21T07:29:00.908Z,18.02
2022-10-21T07:31:32.286Z,19.30
2022-10-21T07:34:00.916Z,15.55
2022-10-21T07:36:30.845Z,26.88
2022-10-21T07:39:03.358Z,19.55
2022-10-21T07:41:33.987Z,16.67
2022-10-21T07:44:02.177Z,23.50
2022-10-21T07:46:30.118Z,18.63
2022-10-21T07:48:58.202Z,14.63
2022-10-21T07:51:30.228Z,16.42
2022-10-21T07:54:02.602Z,23.63
2022-10-21T07:56:32.723Z,22.30
2022-10-21T07:59:01.500Z,27.08
2022-10-21T08:01:29.945Z,18.23
2022-10-21T08:03:58.726Z,20.33
2022-10-21T08:06:28.811Z,23.52
2022-10-21T08:08:58.141Z,19.92
2022-10-21T08:11:29.385Z,20.17
2022-10-21T08:13:58.361Z,19.25
2022-10-21T08:16:27.062Z,19.90
2022-10-21T08:18:55.743Z,14.18
2022-10-21T08:21:23.719Z,23.35
2022-10-21T08:23:51.637Z,24.23
2022-10-21T08:26:19.723Z,18.63
2022-10-21T08:28:49.047Z,24.75
2022-10-21T08:31:19.449Z,20.23
2022-10-21T08:33:47.877Z,19.10
2022-10-21T08:36:17.758Z,25.52
2022-10-21T08:38:46.987Z,20.52
2022-10-21T08:41:39.589Z,20.67
2022-10-21T08:44:18.456Z,18.13
2022-10-21T08:46:50.281Z,28.08
2022-10-21T08:49:27.265Z,15.25
2022-10-21T08:52:03.523Z,35.45
2022-10-21T08:54:41.142Z,26.02
2022-10-21T08:57:11.402Z,28.05
2022-10-21T08:59:42.082Z,25.40
2022-10-21T09:02:25.838Z,16.15
2022-10-21T09:05:01.490Z,23.60
2022-10-21T09:07:37.489Z,22.67
2022-10-21T09:10:16.109Z,27.05
2022-10-21T09:12:56.589Z,22.92
2022-10-21T09:15:28.416Z,16.52
2022-10-21T09:18:06.016Z,16.98
2022-10-21T09:20:45.868Z,19.15
2022-10-21T09:26:12.566Z,12.20
2022-10-21T09:28:40.539Z,12.20
2022-10-21T09:31:16.649Z,10.52
2022-10-21T09:33:47.742Z,13.43
2022-10-21T09:36:20.297Z,10.18
2022-10-21T09:38:54.718Z,11.43
2022-10-21T09:41:25.141Z,11.38
2022-10-21T09:43:53.574Z,13.50
2022-10-21T09:46:23.258Z,10.23
2022-10-21T09:49:23.206Z,12.75
2022-10-21T09:51:45.058Z,13.32
2022-10-21T09:54:17.693Z,15.05
2022-10-21T09:56:51.245Z,10.68
2022-10-21T09:59:22.819Z,9.43
2022-10-21T10:01:53.070Z,16.63
2022-10-21T10:04:29.758Z,16.95
2022-10-21T10:06:59.060Z,12.82
2022-10-21T10:09:29.153Z,8.70
2022-10-21T10:11:59.023Z,13.73
2022-10-21T10:14:30.577Z,11.65
2022-10-21T10:17:20.768Z,10.50
2022-10-21T10:20:08.592Z,16.70
2022-10-21T10:22:38.451Z,6.32
2022-10-21T10:25:17.854Z,11.55
2022-10-21T10:27:48.712Z,10.98
2022-10-21T10:30:17.904Z,9.07
2022-10-21T10:32:48.471Z,15.23
2022-10-21T10:35:25.402Z,10.65
2022-10-21T10:37:54.395Z,12.35
2022-10-21T10:40:25.558Z,11.05
2022-10-21T10:43:01.788Z,9.13
2022-10-21T10:45:29.876Z,7.75
2022-10-21T10:48:03.210Z,11.30
2022-10-21T10:50:46.715Z,8.20
2022-10-21T10:53:24.225Z,6.65
2022-10-21T10:55:59.740Z,5.43
2022-10-21T10:58:31.060Z,6.90
2022-10-21T11:01:03.365Z,9.63
2022-10-21T11:03:41.150Z,4.93
2022-10-21T11:06:16.468Z,8.20
2022-10-21T11:08:49.120Z,6.90
2022-10-21T11:11:24.713Z,7.53
2022-10-21T11:13:53.167Z,4.95
2022-10-21T11:16:50.473Z,3.30
2022-10-21T11:19:30.095Z,2.28
2022-10-21T11:22:11.572Z,4.85
2022-10-21T11:24:55.340Z,2.67
2022-10-21T11:27:34.186Z,4.80
2022-10-21T11:30:10.926Z,8.25
2022-10-21T11:32:56.604Z,3.83
2022-10-21T11:35:44.031Z,4.78
2022-10-21T11:38:41.328Z,8.90
2022-10-21T11:41:19.791Z,3.33
2022-10-21T11:43:57.578Z,2.30
2022-10-21T11:46:44.878Z,1.55
2022-10-21T11:49:26.778Z,3.28
2022-10-21T11:52:04.135Z,2.28
2022-10-21T11:55:05.984Z,2.42
2022-10-21T11:57:44.204Z,6.18
2022-10-21T12:00:17.028Z,3.90
2022-10-21T12:02:46.475Z,5.68
2022-10-21T12:05:25.770Z,13.50
2022-10-21T12:08:07.527Z,2.72
2022-10-21T12:10:39.572Z,4.43
2022-10-21T12:13:14.557Z,1.92
2022-10-21T12:15:47.688Z,4.78
2022-10-21T12:18:17.787Z,4.93
2022-10-21T12:20:48.775Z,1.35
2022-10-21T12:23:21.540Z,9.10
2022-10-21T12:26:00.617Z,1.30
2022-10-21T12:28:33.093Z,3.40
2022-10-21T12:31:06.222Z,5.32
2022-10-21T12:33:39.796Z,2.22
2022-10-21T12:36:21.456Z,3.22
2022-10-21T12:38:53.197Z,2.88
2022-10-21T12:41:31.074Z,2.63
2022-10-21T12:44:24.374Z,2.83
2022-10-21T12:46:55.136Z,3.03
2022-10-21T12:49:26.475Z,4.05
2022-10-21T12:51:58.876Z,2.15
2022-10-21T12:54:31.557Z,0.98
2022-10-21T12:57:02.335Z,4.15
2022-10-21T12:59:36.059Z,2.05
2022-10-21T13:02:24.554Z,1.52
2022-10-21T13:04:54.695Z,4.05
2022-10-21T13:07:38.868Z,6.13
2022-10-21T13:10:33.690Z,4.63
2022-10-21T13:13:31.931Z,3.15
2022-10-21T13:16:03.067Z,4.97
2022-10-21T13:18:53.571Z,7.57
2022-10-21T13:21:34.667Z,4.25
2022-10-21T13:24:12.434Z,1.13
2022-10-21T13:26:47.785Z,3.78
2022-10-21T13:29:29.037Z,2.92
2022-10-21T13:32:26.993Z,5.47
2022-10-21T13:35:29.450Z,6.68
2022-10-21T13:38:01.959Z,2.22
2022-10-21T13:40:33.660Z,4.15
2022-10-21T13:43:08.592Z,15.23
2022-10-21T13:45:38.488Z,9.77
2022-10-21T13:48:11.913Z,1.67
2022-10-21T13:50:42.135Z,5.78
2022-10-21T13:53:30.156Z,4.50
2022-10-21T13:56:00.928Z,4.93
2022-10-21T13:58:35.979Z,3.10
2022-10-21T14:01:12.571Z,5.07
2022-10-21T14:03:42.361Z,9.52
2022-10-21T14:06:13.258Z,4.00
2022-10-21T14:08:46.699Z,3.42
2022-10-21T14:11:19.328Z,3.40
2022-10-21T14:13:50.521Z,2.58
2022-10-21T14:16:24.039Z,3.97
2022-10-21T14:18:54.127Z,19.25
2022-10-21T14:21:24.747Z,5.28
2022-10-21T14:23:53.415Z,7.93
2022-10-21T14:26:21.999Z,6.70
2022-10-21T14:28:51.861Z,3.05
2022-10-21T14:31:20.065Z,3.90
2022-10-21T14:33:49.682Z,7.38
2022-10-21T14:36:20.517Z,3.17
2022-10-21T14:38:58.686Z,9.90
2022-10-21T14:43:59.759Z,12.00
2022-10-21T14:46:27.694Z,3.60
2022-10-21T14:48:59.583Z,4.03
2022-10-21T14:51:28.143Z,7.07
2022-10-21T14:53:58.622Z,2.83
2022-10-21T14:56:31.674Z,5.68
2022-10-21T14:59:17.388Z,3.58
2022-10-21T15:01:45.581Z,5.97
2022-10-21T15:04:41.346Z,3.92
2022-10-21T15:07:17.840Z,6.97
2022-10-21T15:09:59.965Z,3.45
2022-10-21T15:12:27.794Z,5.97
2022-10-21T15:14:57.048Z,4.15
2022-10-21T15:17:24.935Z,3.92
2022-10-21T15:19:53.454Z,5.13
2022-10-21T15:22:27.107Z,4.85
2022-10-21T15:24:59.082Z,3.03
2022-10-21T15:27:29.621Z,3.88
2022-10-21T15:30:06.651Z,9.20
2022-10-21T15:32:34.509Z,3.30
2022-10-21T15:35:02.521Z,3.95
2022-10-21T15:37:30.387Z,2.85
2022-10-21T15:39:58.360Z,2.13
2022-10-21T15:42:26.213Z,4.25
2022-10-21T15:44:54.144Z,11.90
2022-10-21T15:47:24.908Z,1.58
2022-10-21T15:49:54.383Z,5.35
2022-10-21T15:52:22.658Z,2.58
2022-10-21T15:54:50.529Z,1.95
2022-10-21T15:57:20.266Z,3.17
2022-10-21T15:59:48.746Z,2.30
2022-10-21T16:02:18.063Z,4.40
2022-10-21T16:04:47.410Z,4.25
2022-10-21T16:07:20.221Z,1.88
2022-10-21T16:09:48.511Z,4.07
2022-10-21T16:12:18.777Z,2.92
2022-10-21T16:14:46.677Z,3.17
2022-10-21T16:17:15.034Z,4.30
2022-10-21T16:19:43.582Z,4.97
2022-10-21T16:22:16.814Z,3.92
2022-10-21T16:24:44.625Z,7.05
2022-10-21T16:27:14.499Z,6.80
2022-10-21T16:29:45.515Z,5.25
2022-10-21T16:32:13.793Z,2.90
2022-10-21T16:34:41.655Z,3.92
2022-10-21T16:37:22.093Z,4.25
2022-10-21T16:39:50.020Z,5.22
2022-10-21T16:42:18.030Z,4.22
2022-10-21T16:44:46.320Z,3.65
2022-10-21T16:47:18.999Z,6.25
2022-10-21T16:49:47.878Z,6.95
2022-10-21T16:52:17.664Z,0.98
2022-10-21T16:54:48.618Z,1.65
2022-10-21T16:57:16.957Z,2.95
2022-10-21T16:59:44.841Z,1.50
2022-10-21T17:02:17.373Z,1.40
2022-10-21T17:04:45.484Z,1.58
2022-10-21T17:07:13.951Z,2.85
2022-10-21T17:09:43.171Z,2.25
2022-10-21T17:12:12.142Z,1.83
2022-10-21T17:14:40.318Z,4.47
2022-10-21T17:17:08.475Z,3.53
2022-10-21T17:19:36.424Z,1.13
2022-10-21T17:22:04.428Z,2.85
2022-10-21T17:24:32.398Z,3.83
2022-10-21T17:27:01.823Z,9.90
2022-10-21T17:29:29.736Z,4.65
2022-10-21T17:31:57.655Z,4.03
2022-10-21T17:34:29.020Z,3.72
2022-10-21T17:36:57.007Z,2.33
2022-10-21T17:39:25.256Z,3.65
2022-10-21T17:41:53.344Z,1.13
2022-10-21T17:44:22.929Z,2.25
2022-10-21T17:46:54.387Z,4.00
2022-10-21T17:49:22.768Z,4.00
2022-10-21T17:51:50.846Z,2.78
2022-10-21T17:54:22.852Z,2.63
2022-10-21T17:56:54.829Z,5.05
2022-10-21T17:59:24.164Z,3.75
2022-10-21T18:01:52.124Z,6.45
2022-10-21T18:04:20.131Z,6.63
2022-10-21T18:06:48.155Z,5.03
2022-10-21T18:09:16.162Z,1.75
2022-10-21T18:11:44.145Z,3.88
2022-10-21T18:14:12.075Z,3.03
2022-10-21T18:16:41.413Z,1.52
2022-10-21T18:19:09.801Z,7.80
2022-10-21T18:21:37.826Z,2.63
2022-10-21T18:24:09.873Z,3.35
2022-10-21T18:26:40.587Z,4.03
2022-10-21T18:29:08.603Z,6.03
2022-10-21T18:31:38.515Z,5.07
2022-10-21T18:34:09.410Z,4.43
2022-10-21T18:36:37.572Z,9.27
2022-10-21T18:39:06.621Z,5.70
2022-10-21T18:41:34.613Z,3.38
2022-10-21T18:44:08.012Z,2.08
2022-10-21T18:46:37.468Z,1.90
2022-10-21T18:49:07.935Z,10.18
2022-10-21T18:51:36.026Z,4.68
2022-10-21T18:54:04.005Z,2.70
2022-10-21T18:56:32.112Z,2.55
2022-10-21T18:59:00.414Z,4.00
2022-10-21T19:01:28.504Z,3.85
2022-10-21T19:03:56.683Z,2.80
2022-10-21T19:06:35.911Z,3.03
2022-10-21T19:09:07.688Z,5.57
2022-10-21T19:11:35.743Z,6.40
2022-10-21T19:14:03.782Z,3.28
2022-10-21T19:16:31.764Z,10.60
2022-10-21T19:18:59.787Z,6.00
2022-10-21T19:21:28.208Z,6.68
2022-10-21T19:24:01.553Z,7.18
2022-10-21T19:26:30.095Z,3.83
2022-10-21T19:29:02.035Z,4.03
2022-10-21T19:31:32.379Z,4.55
2022-10-21T19:34:03.944Z,4.22
2022-10-21T19:36:31.865Z,4.45
2022-10-21T19:39:01.222Z,5.75
2022-10-21T19:41:29.247Z,4.70
2022-10-21T19:43:59.019Z,3.72
2022-10-21T19:46:29.238Z,5.30
2022-10-21T19:48:57.844Z,10.15
2022-10-21T19:51:26.821Z,7.90
2022-10-21T19:53:55.733Z,3.95
2022-10-21T19:56:29.580Z,10.02
2022-10-21T19:58:58.839Z,9.27
2022-10-21T20:01:28.371Z,5.65
2022-10-21T20:03:56.652Z,8.35
2022-10-21T20:06:27.158Z,3.20
2022-10-21T20:08:56.136Z,10.77
2022-10-21T20:11:26.287Z,6.68
2022-10-21T20:13:54.985Z,6.85
2022-10-21T20:16:26.618Z,4.68
2022-10-21T20:18:55.196Z,9.10
2022-10-21T20:21:23.916Z,8.38
2022-10-21T20:23:52.631Z,7.32
2022-10-21T20:26:22.608Z,13.18
2022-10-21T20:28:51.971Z,12.95
2022-10-21T20:31:20.142Z,7.85
2022-10-21T20:33:49.798Z,6.68
2022-10-21T20:36:19.929Z,6.07
2022-10-21T20:38:48.835Z,13.30
2022-10-21T20:41:21.641Z,10.88
2022-10-21T20:43:51.977Z,14.15
2022-10-21T20:46:21.820Z,12.05
2022-10-21T20:48:51.289Z,9.27
2022-10-21T20:51:22.400Z,16.33
2022-10-21T20:53:52.236Z,7.60
2022-10-21T20:56:20.475Z,11.80
2022-10-21T20:58:49.143Z,9.00
2022-10-21T21:01:22.146Z,13.73
2022-10-21T21:03:51.154Z,14.55
2022-10-21T21:06:19.517Z,12.75
2022-10-21T21:08:53.435Z,12.68
2022-10-21T21:11:26.604Z,12.15
2022-10-21T21:13:54.519Z,13.73
2022-10-21T21:16:24.532Z,11.95
2022-10-21T21:18:54.450Z,16.33
2022-10-21T21:21:23.600Z,10.80
2022-10-21T21:23:51.776Z,12.55
2022-10-21T21:26:21.407Z,12.25
2022-10-21T21:28:50.710Z,7.95
2022-10-21T21:31:19.643Z,5.50
2022-10-21T21:33:49.328Z,10.25
2022-10-21T21:36:18.685Z,3.55
2022-10-21T21:38:47.247Z,8.20
2022-10-21T21:41:16.746Z,3.13
2022-10-21T21:43:46.468Z,5.35
2022-10-21T21:46:22.683Z,3.03
2022-10-21T21:48:55.318Z,4.30
2022-10-21T21:51:27.101Z,7.57
2022-10-21T21:53:55.552Z,9.65
2022-10-21T21:56:24.366Z,9.10
2022-10-21T21:58:54.891Z,7.68
2022-10-21T22:01:25.265Z,6.50
2022-10-21T22:03:55.402Z,5.80
2022-10-21T22:08:59.652Z,3.15
2022-10-21T22:11:30.122Z,4.47
2022-10-21T22:13:58.394Z,4.40
2022-10-21T22:16:29.997Z,2.22
2022-10-21T22:19:01.434Z,5.50
2022-10-21T22:21:31.566Z,5.60
2022-10-21T22:23:59.920Z,1.35
2022-10-21T22:26:27.990Z,5.68
2022-10-21T22:28:56.168Z,4.20
2022-10-21T22:31:29.176Z,6.50
2022-10-21T22:34:00.954Z,1.90
2022-10-21T22:36:29.581Z,9.02
2022-10-21T22:38:57.549Z,5.25
2022-10-21T22:41:25.925Z,4.65
2022-10-21T22:43:53.947Z,5.47
2022-10-21T22:46:33.357Z,4.15
2022-10-21T22:49:03.527Z,2.10
2022-10-21T22:51:31.581Z,3.05
2022-10-21T22:53:59.682Z,2.17
2022-10-21T22:56:28.682Z,2.38
2022-10-21T22:58:57.439Z,0.68
2022-10-21T23:01:28.801Z,3.97
2022-10-21T23:03:57.852Z,10.00
2022-10-21T23:06:27.150Z,2.28
2022-10-21T23:08:55.176Z,5.10
2022-10-21T23:11:23.187Z,5.38
2022-10-21T23:14:02.433Z,2.08
2022-10-21T23:16:32.094Z,4.03
2022-10-21T23:19:00.261Z,13.75
2022-10-21T23:21:30.045Z,7.20
2022-10-21T23:23:58.376Z,3.00
2022-10-21T23:26:26.414Z,6.15
2022-10-21T23:28:54.383Z,2.67
2022-10-21T23:31:22.699Z,2.50
2022-10-21T23:33:50.723Z,6.20
2022-10-21T23:36:18.742Z,1.60
2022-10-21T23:38:48.831Z,2.15
2022-10-21T23:41:16.736Z,2.35
2022-10-21T23:43:44.661Z,3.10
2022-10-21T23:46:12.597Z,8.70
2022-10-21T23:48:40.560Z,9.38
2022-10-21T23:51:08.483Z,5.72
2022-10-21T23:53:36.695Z,2.95
2022-10-21T23:56:06.778Z,8.95
2022-10-21T23:58:34.737Z,5.55
